Terminal Aerodrome Forecast
Issued by NWS Bismarck, ND

Home | Current Version | Previous Version | Text Only | Print | Product List | Glossary Off
Versions: 1 2 3 4 5 6 7 8 9 10 11 12 13 14 15 16 17 18 19 20 21

311
FTUS43 KBIS 251606 AAA
TAFISN
TAF AMD
KISN 251606Z 2516/2612 23021G29KT P6SM BKN060
     FM260100 29014KT P6SM BKN060=

USA.gov is the U.S. government's official web portal to all federal, state and local government web resources and services.